createdAt,value
2022-11-25T00:00:25.159Z,100
2022-11-25T00:20:26.732Z,100
2022-11-25T00:30:27.041Z,100
2022-11-25T00:50:27.901Z,100
2022-11-25T01:00:28.388Z,100
2022-11-25T01:10:29.212Z,100
2022-11-25T01:20:29.964Z,100
2022-11-25T01:30:31.022Z,100
2022-11-25T01:40:32.105Z,100
2022-11-25T01:50:33.156Z,100
2022-11-25T02:00:33.301Z,100
2022-11-25T02:10:34.009Z,100
2022-11-25T02:20:40.567Z,100
2022-11-25T02:30:41.231Z,100
2022-11-25T02:40:41.528Z,100
2022-11-25T02:50:42.362Z,100
2022-11-25T03:00:42.875Z,99
2022-11-25T03:20:44.092Z,99
2022-11-25T03:30:44.838Z,99
2022-11-25T03:40:45.537Z,100
2022-11-25T04:20:47.680Z,100
2022-11-25T04:30:48.504Z,100
2022-11-25T05:20:51.222Z,100
2022-11-25T05:30:51.583Z,100
2022-11-25T05:50:52.397Z,100
2022-11-25T06:00:52.712Z,100
2022-11-25T06:10:53.770Z,100
2022-11-25T06:20:54.203Z,100
2022-11-25T06:30:54.825Z,100
2022-11-25T06:40:59.139Z,100
2022-11-25T06:50:55.420Z,100
2022-11-25T07:00:56.379Z,100
2022-11-25T07:10:57.328Z,100
2022-11-25T07:20:57.647Z,100
2022-11-25T07:31:23.624Z,100
2022-11-25T07:40:59.029Z,100
2022-11-25T07:50:59.287Z,100
2022-11-25T08:00:59.693Z,100
2022-11-25T08:11:00.314Z,100
2022-11-25T08:21:00.841Z,100
2022-11-25T08:31:01.341Z,100
2022-11-25T08:41:01.933Z,100
2022-11-25T08:51:02.432Z,100
2022-11-25T09:01:02.600Z,100
2022-11-25T09:11:03.257Z,100
2022-11-25T09:21:03.433Z,100
2022-11-25T09:31:03.855Z,100
2022-11-25T09:41:04.478Z,99
2022-11-25T09:51:05.201Z,98
2022-11-25T10:01:05.342Z,96
2022-11-25T10:11:05.565Z,97
2022-11-25T10:21:06.151Z,97
2022-11-25T10:41:07.157Z,94
2022-11-25T10:51:07.360Z,92
2022-11-25T11:01:07.610Z,92
2022-11-25T11:11:07.722Z,91
2022-11-25T11:21:08.667Z,91
2022-11-25T11:31:09.589Z,91
2022-11-25T11:41:09.712Z,91
2022-11-25T11:51:10.190Z,89
2022-11-25T12:01:10.585Z,89
2022-11-25T12:11:11.189Z,87
2022-11-25T12:21:11.533Z,88
2022-11-25T12:31:12.056Z,88
2022-11-25T12:41:13.065Z,87
2022-11-25T12:51:14.050Z,88
2022-11-25T13:01:14.317Z,88
2022-11-25T13:11:14.631Z,88
2022-11-25T13:21:14.633Z,88
2022-11-25T13:31:14.950Z,88
2022-11-25T13:41:15.471Z,89
2022-11-25T13:51:15.655Z,89
2022-11-25T14:11:16.990Z,89
2022-11-25T14:21:17.805Z,89
2022-11-25T14:31:18.726Z,89
2022-11-25T14:41:19.093Z,90
2022-11-25T14:51:19.739Z,90
2022-11-25T15:01:20.590Z,90
2022-11-25T15:11:20.916Z,91
2022-11-25T15:21:21.476Z,91
2022-11-25T15:31:22.149Z,91
2022-11-25T15:41:23.079Z,91
2022-11-25T15:51:23.382Z,91
2022-11-25T16:01:24.200Z,91
2022-11-25T16:21:25.678Z,93
2022-11-25T16:31:26.236Z,93
2022-11-25T16:41:27.066Z,94
2022-11-25T16:51:27.963Z,95
2022-11-25T17:01:28.704Z,96
2022-11-25T17:11:29.268Z,96
2022-11-25T17:21:29.948Z,96
2022-11-25T17:31:30.774Z,97
2022-11-25T17:41:34.247Z,97
2022-11-25T17:51:32.136Z,97
2022-11-25T18:01:33.027Z,97
2022-11-25T18:11:33.788Z,97
2022-11-25T18:21:33.970Z,98
2022-11-25T18:51:35.389Z,98
2022-11-25T19:01:36.009Z,98
2022-11-25T19:11:36.781Z,98
2022-11-25T19:21:37.302Z,98
2022-11-25T19:31:37.794Z,99
2022-11-25T20:01:38.910Z,99
2022-11-25T20:11:39.850Z,99
2022-11-25T20:21:39.863Z,100
2022-11-25T20:31:40.834Z,100
2022-11-25T20:41:41.774Z,100
2022-11-25T20:51:42.215Z,100
2022-11-25T21:11:43.701Z,100
2022-11-25T21:21:43.931Z,100
2022-11-25T21:31:44.096Z,100
2022-11-25T21:41:44.222Z,100
2022-11-25T21:51:44.969Z,100
2022-11-25T22:01:45.710Z,100
2022-11-25T22:11:45.974Z,100
2022-11-25T22:21:46.181Z,100
2022-11-25T22:31:46.626Z,100
2022-11-25T22:41:47.416Z,100
2022-11-25T22:51:47.621Z,100
2022-11-25T23:01:48.545Z,100
2022-11-25T23:11:49.243Z,100
2022-11-25T23:21:49.984Z,100
2022-11-25T23:31:50.290Z,100
2022-11-25T23:41:51.317Z,100
2022-11-25T23:51:51.668Z,100
